Impacts METAR Board
IDs:

KSLC - Salt Lake City Intl, UT, US

Updated at: 0800 UTC 16 Oct 2018
Potential Impact None Slight Moderate High
Time 15/20Z 15/21Z 15/22Z 15/23Z 16/00Z 16/01Z 16/02Z 16/03Z 16/04Z 16/05Z 16/06Z 16/07Z 16/08Z
Temp46 47 48 48 47 45 42 42 41 39 38 38 37
Dewpt19 19 21 22 24 24 27 26 27 28 27 28 27
Altim30.41 30.39 30.37 30.36 30.35 30.35 30.36 30.36 30.36 30.37 30.37 30.37 30.36
VIS10 10 10 10 10 10 10 10 10 10 10 10 10
CIG-- -- -- -- -- -- -- -- -- -- -- -- --
CoverFEWFEWFEWFEWFEWFEWCLRCLRCLRCLRCLRCLRCLR
FltCatVFRVFRVFRVFRVFRVFRVFRVFRVFRVFRVFRVFRVFR
WX--------------------------
WDir3203103203103203503600140130140140150
WSpd12 11 11 11 10 5 5 0 5 4 3 5 3
WGst-- -- -- -- -- -- -- -- -- -- -- -- --
Raw hourly METARs
KSLC 151954Z 32012KT 10SM FEW085 FEW200 08/M07 A3041 RMK AO2 SLP300 T00781072
KSLC 152054Z 31011KT 10SM FEW085 FEW200 08/M07 A3039 RMK AO2 SLP291 T00831072 58018
KSLC 152154Z 32011KT 10SM FEW085 FEW200 09/M06 A3037 RMK AO2 SLP286 T00891061
KSLC 152254Z 31011KT 10SM FEW200 09/M06 A3036 RMK AO2 SLP280 T00891056
KSLC 152354Z 32010KT 10SM FEW200 08/M04 A3035 RMK AO2 SLP280 T00831044 10094 20061 56010
KSLC 160054Z 35005KT 10SM FEW200 07/M04 A3035 RMK AO2 SLP283 T00721044
KSLC 160154Z 36005KT 10SM CLR 06/M03 A3036 RMK AO2 SLP287 T00561028
KSLC 160254Z 00000KT 10SM CLR 06/M03 A3036 RMK AO2 SLP287 T00561033 52004
KSLC 160354Z 14005KT 10SM CLR 05/M03 A3036 RMK AO2 SLP282 T00501028
KSLC 160454Z 13004KT 10SM CLR 04/M02 A3037 RMK AO2 SLP284 T00391022
KSLC 160554Z 14003KT 10SM CLR 03/M03 A3037 RMK AO2 SLP282 T00331028 10083 20033 53001
KSLC 160654Z 14005KT 10SM CLR 03/M02 A3037 RMK AO2 SLP281 T00331022 400941017
KSLC 160754Z 15003KT 10SM CLR 03/M03 A3036 RMK AO2 SLP277 T00281028



Page loaded:  08:01 UTC  |   01:01 AM Pacific  |   02:01 AM Mountain  |   03:01 AM Central  |   04:01 AM Eastern

 

ADVISORIES

FORECASTS

FORECASTS

OBSERVATIONS

USER TOOLS

ABOUT US